»·PEaware :: N990MA KLBF-KFTG

N990MA :: KLBF-KFTG

FLIGHT INFORMATION

Flight Status: Arrived
Operator: Privately registered:
United States
More flights under this callsign
Pilot: Marcus B. (1617)
Aircraft: SOCATA TBM-900
(TBM9)
More flights by this aircraft type
Origin: KLBF North Platte Regl-Bird
United States
Destination: KFTG Front Range
United States
More flights between these airports :: More routes between these airports
Route: LBF SAYGE1
File this flight plan on PilotEdge
Remarks:
Altitude:
(Current/Filed)
22,000ft
Speed:
(Current/Filed)
250kts
Departed: 07-Dec-18 05:49 PM
Arrived: 07-Dec-18 06:47 PM
Distance/Time
Traveled:
194nm/0:58
Distance/Time
To Go:
Arrived

Flight Plot

Page will automatically refresh every two minutes.

Flight plan parsing failed; only flown route is shown


Map Options




Map Legend


Flown Route
Filed Route
Departure Airport
Arrival Airport
Navaid (VOR, NDB)
Fix

Horizontal Profiles

Position Reports

Time Latitude Longitude Heading Altitude Ground
Speed
07-Dec-18 17:17 41.131726 -100.696367 90 2780ft 0kts
07-Dec-18 17:18 41.131726 -100.696367 90 2780ft 0kts
07-Dec-18 17:19 41.131726 -100.696367 90 2780ft 0kts
07-Dec-18 17:20 41.131726 -100.696367 90 2780ft 0kts
07-Dec-18 17:21 41.131726 -100.696367 90 2780ft 0kts
07-Dec-18 17:22 41.131726 -100.696367 90 2780ft 0kts
07-Dec-18 17:23 41.131726 -100.696367 90 2780ft 0kts
07-Dec-18 17:25 41.131726 -100.696367 90 2780ft 0kts
07-Dec-18 17:26 41.131726 -100.696367 90 2780ft 0kts
07-Dec-18 17:27 41.131726 -100.696367 90 2780ft 0kts
07-Dec-18 17:28 41.131726 -100.696367 90 2780ft 0kts
07-Dec-18 17:29 41.131726 -100.696367 90 2780ft 0kts
07-Dec-18 17:30 41.131726 -100.696367 90 2780ft 0kts
07-Dec-18 17:31 41.131726 -100.696367 90 2780ft 0kts
07-Dec-18 17:32 41.131726 -100.696367 90 2780ft 0kts
07-Dec-18 17:33 41.131726 -100.696367 90 2780ft 0kts
07-Dec-18 17:34 41.131726 -100.696367 90 2780ft 0kts
07-Dec-18 17:35 41.131726 -100.696367 90 2780ft 0kts
07-Dec-18 17:36 41.131726 -100.696367 90 2780ft 0kts
07-Dec-18 17:37 41.131726 -100.696367 90 2780ft 0kts
07-Dec-18 17:38 41.131726 -100.696367 90 2780ft 0kts
07-Dec-18 17:39 41.131726 -100.696367 90 2780ft 0kts
07-Dec-18 17:40 41.131726 -100.696367 90 2780ft 0kts
07-Dec-18 17:41 41.131726 -100.696367 90 2780ft 0kts
07-Dec-18 17:41 41.131726 -100.696367 90 2780ft 0kts
07-Dec-18 17:43 41.131726 -100.696367 90 2780ft 0kts
07-Dec-18 17:44 41.131726 -100.696367 90 2780ft 0kts
07-Dec-18 17:45 41.131726 -100.696359 90 2780ft 0kts
07-Dec-18 17:45 41.131119 -100.694728 88 2780ft 4kts
07-Dec-18 17:46 41.131111 -100.692311 90 2780ft 8kts
07-Dec-18 17:48 41.131754 -100.689293 125 2780ft 23kts
07-Dec-18 17:48 41.118524 -100.663500 119 3890ft 126kts
07-Dec-18 17:49 41.088077 -100.645934 204 6459ft 140kts
07-Dec-18 17:50 41.070968 -100.685842 264 8846ft 117kts
07-Dec-18 17:52 41.058258 -100.744119 196 10326ft 202kts
07-Dec-18 17:52 41.040991 -100.792390 262 12155ft 175kts
07-Dec-18 17:53 41.031809 -100.852880 261 14269ft 167kts
07-Dec-18 17:54 41.022210 -100.912898 261 16059ft 169kts
07-Dec-18 17:55 41.012545 -100.973035 261 18212ft 166kts
07-Dec-18 17:56 41.002969 -101.032412 261 20081ft 166kts
07-Dec-18 17:57 40.993265 -101.092311 261 21806ft 169kts
07-Dec-18 17:58 40.982061 -101.161292 260 22418ft 224kts
07-Dec-18 17:59 40.968010 -101.247263 260 22392ft 248kts
07-Dec-18 18:00 40.953184 -101.337608 260 22382ft 253kts
07-Dec-18 18:01 40.938182 -101.428531 260 22380ft 254kts
07-Dec-18 18:02 40.923065 -101.519712 260 22378ft 254kts
07-Dec-18 18:03 40.907858 -101.610979 260 22377ft 254kts
07-Dec-18 18:04 40.892725 -101.701258 260 22385ft 255kts
07-Dec-18 18:05 40.877304 -101.792877 259 22385ft 255kts
07-Dec-18 18:06 40.861811 -101.884397 259 22379ft 255kts
07-Dec-18 18:07 40.846248 -101.975904 259 22373ft 255kts
07-Dec-18 18:08 40.830668 -102.067014 260 22367ft 255kts
07-Dec-18 18:09 40.814968 -102.158380 259 22365ft 255kts
07-Dec-18 18:10 40.799215 -102.249534 260 22363ft 255kts
07-Dec-18 18:11 40.783433 -102.340426 260 22362ft 254kts
07-Dec-18 18:12 40.767564 -102.431433 260 22361ft 254kts
07-Dec-18 18:13 40.751668 -102.522070 260 22357ft 254kts
07-Dec-18 18:14 40.735648 -102.612986 259 22346ft 254kts
07-Dec-18 18:15 40.719933 -102.701767 259 22348ft 255kts
07-Dec-18 18:16 40.703781 -102.792540 259 22343ft 255kts
07-Dec-18 18:17 40.687498 -102.883598 259 22336ft 255kts
07-Dec-18 18:18 40.671172 -102.974500 259 22327ft 255kts
07-Dec-18 18:19 40.654766 -103.065616 257 22328ft 256kts
07-Dec-18 18:20 40.638221 -103.156794 255 22328ft 258kts
07-Dec-18 18:21 40.599816 -103.235710 231 22330ft 264kts
07-Dec-18 18:22 40.552582 -103.309269 231 22327ft 262kts
07-Dec-18 18:23 40.505434 -103.382459 231 22327ft 263kts
07-Dec-18 18:24 40.457991 -103.455915 231 22324ft 264kts
07-Dec-18 18:25 40.410251 -103.529647 231 22315ft 265kts
07-Dec-18 18:26 40.362485 -103.603257 231 22308ft 265kts
07-Dec-18 18:27 40.314930 -103.676349 230 22312ft 265kts
07-Dec-18 18:28 40.267989 -103.748964 231 21984ft 250kts
07-Dec-18 18:29 40.227817 -103.824610 237 19682ft 256kts
07-Dec-18 18:30 40.189432 -103.901336 237 17918ft 251kts
07-Dec-18 18:31 40.151795 -103.977330 237 16329ft 248kts
07-Dec-18 18:32 40.114588 -104.052976 237 14962ft 246kts
07-Dec-18 18:33 40.085980 -104.133194 247 13779ft 239kts
07-Dec-18 18:34 40.061282 -104.212700 247 11471ft 235kts
07-Dec-18 18:35 40.037878 -104.290615 247 8567ft 231kts
07-Dec-18 18:36 40.015744 -104.366983 247 6997ft 214kts
07-Dec-18 18:37 39.997530 -104.431372 247 6972ft 159kts
07-Dec-18 18:38 39.977310 -104.477741 208 7008ft 153kts
07-Dec-18 18:39 39.940175 -104.504736 208 6985ft 141kts
07-Dec-18 18:40 39.913423 -104.524113 193 6992ft 103kts
07-Dec-18 18:41 39.885621 -104.524488 178 6990ft 99kts
07-Dec-18 18:42 39.858569 -104.524110 177 7201ft 88kts
07-Dec-18 18:43 39.833256 -104.524381 179 6498ft 94kts
07-Dec-18 18:44 39.807503 -104.524179 179 5981ft 92kts
07-Dec-18 18:45 39.782149 -104.524194 181 5517ft 80kts
07-Dec-18 18:46 39.773069 -104.522576 53 5515ft 10kts
07-Dec-18 18:47 39.777354 -104.522450 358 5515ft 22kts
07-Dec-18 18:48 39.784454 -104.522445 358 5515ft 14kts
07-Dec-18 18:49 39.786121 -104.526045 0 5515ft 24kts
07-Dec-18 18:50 39.791723 -104.526800 275 5515ft 10kts
07-Dec-18 18:51 39.791872 -104.534491 269 5515ft 24kts
07-Dec-18 18:52 39.792380 -104.538212 350 5515ft 7kts
07-Dec-18 18:53 39.792590 -104.545076 275 5515ft 25kts
07-Dec-18 18:54 39.792443 -104.549654 171 5515ft 4kts
07-Dec-18 18:55 39.791608 -104.550103 355 5515ft 0kts
07-Dec-18 18:56 39.791608 -104.550103 355 5515ft 0kts
07-Dec-18 18:57 39.791608 -104.550103 355 5515ft 0kts
07-Dec-18 18:58 39.791608 -104.550102 355 5515ft 0kts
07-Dec-18 18:59 39.791608 -104.550102 355 5515ft 0kts
07-Dec-18 19:00 39.791608 -104.550102 355 5515ft 0kts

Navigation Log

Ident Type
Flight plan parsing failed, navigation log unavailable